Virgil, South Dakota
Current Conditions -  °F | °C
As of 7:55 AM on Monday 22 Dec 2014 (Local Time) from KHON Reporting Station
Overcast Overcast  
Wind Chill: 23°   Ceiling: 7000
Heat Index: 29°   Visibility: 7mi
Dew Point: 27°   Wind: 6mph
Humidity: 92%   Direction: 300°WNW
Pressure: 29.44"   Gusts: NA
Location:  44.29°N, 98.42°W
Report Text: KHON 221355Z AUTO 30005KT 7SM BKN070 OVC095 M02/M03 A2944 RMK AO2 SLP980 T10171028
Loading
Personal Weather Stations






























Interactive Weather Map New forecast layout! Learn more

10-Day Weather Forecast

Advertisements
Track Severe Weather on mobile